Terminal Aerodrome Forecast
Issued by NWS

Home | Current Version | Previous Version | Text Only | Print | Product List | Glossary On
Versions: 1 2 3 4 5 6 7 8 9 10 11 12 13 14 15 16 17
000
FTUS44 KHGX 102327
TAFCXO
TAF
KCXO 102327Z 1100/1124 13006KT P6SM OVC060
     FM110600 14006KT P6SM SCT015 BKN035
     FM110900 14004KT P6SM SCT015 BKN025
     FM111300 15008KT P6SM BKN015 OVC030
     FM111700 17011KT P6SM BKN020 OVC035=

USA.gov is the U.S. government's official web portal to all federal, state and local government web resources and services.